createdAt,value
2018-03-26T00:00:11.524Z,0.00
2018-03-26T00:01:11.520Z,0.00
2018-03-26T00:02:11.518Z,0.00
2018-03-26T00:03:11.508Z,0.00
2018-03-26T00:04:11.503Z,0.00
2018-03-26T00:05:11.498Z,0.00
2018-03-26T00:06:11.492Z,0.00
2018-03-26T00:07:11.487Z,0.00
2018-03-26T00:08:11.481Z,0.00
2018-03-26T00:09:11.477Z,0.00
2018-03-26T00:10:11.472Z,0.00
2018-03-26T00:11:11.464Z,0.00
2018-03-26T00:12:11.460Z,0.00
2018-03-26T00:13:11.455Z,0.00
2018-03-26T00:14:11.450Z,0.00
2018-03-26T00:15:11.443Z,0.00
2018-03-26T00:16:11.439Z,0.00
2018-03-26T00:17:11.433Z,0.00
2018-03-26T00:18:11.428Z,0.00
2018-03-26T00:19:11.422Z,0.00
2018-03-26T00:20:11.417Z,0.00
2018-03-26T00:21:11.411Z,0.00
2018-03-26T00:22:11.408Z,0.00
2018-03-26T00:23:11.401Z,0.00
2018-03-26T00:24:11.394Z,0.00
2018-03-26T00:25:11.389Z,0.00
2018-03-26T00:26:11.384Z,0.00
2018-03-26T00:27:11.400Z,0.00
2018-03-26T00:28:11.371Z,0.00
2018-03-26T00:29:11.367Z,0.00
2018-03-26T00:30:11.362Z,0.00
2018-03-26T00:31:11.356Z,0.00
2018-03-26T00:32:11.377Z,0.00
2018-03-26T00:33:11.344Z,0.00
2018-03-26T00:34:11.340Z,0.00
2018-03-26T00:35:11.336Z,0.00
2018-03-26T00:36:11.327Z,0.00
2018-03-26T00:37:11.323Z,0.00
2018-03-26T00:38:11.316Z,0.00
2018-03-26T00:39:11.310Z,0.00
2018-03-26T00:40:11.309Z,0.00
2018-03-26T00:41:11.300Z,0.00
2018-03-26T00:42:11.293Z,0.00
2018-03-26T00:43:11.287Z,0.00
2018-03-26T00:44:11.281Z,0.00
2018-03-26T00:45:11.282Z,0.00
2018-03-26T00:46:11.272Z,0.00
2018-03-26T00:47:11.265Z,0.00
2018-03-26T00:48:11.290Z,0.00
2018-03-26T00:49:11.404Z,0.00
2018-03-26T00:50:11.250Z,0.00
2018-03-26T00:51:11.246Z,0.00
2018-03-26T00:52:11.236Z,0.00
2018-03-26T00:53:11.231Z,0.00
2018-03-26T00:54:11.225Z,0.00
2018-03-26T00:55:11.219Z,0.00
2018-03-26T00:56:11.215Z,0.00
2018-03-26T00:57:11.207Z,0.00
2018-03-26T00:58:11.203Z,0.00
2018-03-26T00:59:11.196Z,0.00
2018-03-26T01:00:11.210Z,0.00
2018-03-26T01:01:11.184Z,0.00
2018-03-26T01:02:11.177Z,0.00
2018-03-26T01:03:11.172Z,0.00
2018-03-26T01:04:11.191Z,0.00
2018-03-26T01:05:11.164Z,0.00
2018-03-26T01:06:11.154Z,0.00
2018-03-26T01:07:11.148Z,0.00
2018-03-26T01:08:11.141Z,0.00
2018-03-26T01:09:11.136Z,0.00
2018-03-26T01:10:11.130Z,0.00
2018-03-26T01:11:11.130Z,0.00
2018-03-26T01:12:11.140Z,0.00
2018-03-26T01:13:11.113Z,0.00
2018-03-26T01:14:11.108Z,0.00
2018-03-26T01:15:11.100Z,0.00
2018-03-26T01:16:11.094Z,0.00
2018-03-26T01:17:11.088Z,0.00
2018-03-26T01:18:11.088Z,0.00
2018-03-26T01:19:11.075Z,0.00
2018-03-26T01:20:11.082Z,0.00
2018-03-26T01:21:11.064Z,0.00
2018-03-26T01:22:11.058Z,0.00
2018-03-26T01:23:11.055Z,0.00
2018-03-26T01:24:11.046Z,0.00
2018-03-26T01:25:11.039Z,0.00
2018-03-26T01:26:11.034Z,0.00
2018-03-26T01:27:11.027Z,0.00
2018-03-26T01:28:11.036Z,0.00
2018-03-26T01:29:11.015Z,0.00
2018-03-26T01:30:11.015Z,0.00
2018-03-26T01:31:11.003Z,0.00
2018-03-26T01:32:11.013Z,0.00
2018-03-26T01:33:11.009Z,0.00
2018-03-26T01:34:10.984Z,0.00
2018-03-26T01:35:10.980Z,0.00
2018-03-26T01:36:10.981Z,0.00
2018-03-26T01:37:10.966Z,0.00
2018-03-26T01:38:10.961Z,0.00
2018-03-26T01:39:10.954Z,0.00
2018-03-26T01:40:10.953Z,0.00
2018-03-26T01:41:10.954Z,0.00
2018-03-26T01:42:10.936Z,0.00
2018-03-26T01:43:10.929Z,0.00
2018-03-26T01:44:10.937Z,0.00
2018-03-26T01:45:10.917Z,0.00
2018-03-26T01:46:10.912Z,0.00
2018-03-26T01:47:10.904Z,0.00
2018-03-26T01:48:10.899Z,0.00
2018-03-26T01:49:10.892Z,0.00
2018-03-26T01:50:10.887Z,0.00
2018-03-26T01:51:10.879Z,0.00
2018-03-26T01:52:10.882Z,0.00
2018-03-26T01:53:10.869Z,0.00
2018-03-26T01:54:10.862Z,0.00
2018-03-26T01:55:10.855Z,0.00
2018-03-26T01:56:10.851Z,0.00
2018-03-26T01:57:10.844Z,0.00
2018-03-26T01:58:10.839Z,0.00
2018-03-26T01:59:10.830Z,0.00
2018-03-26T02:00:10.860Z,0.00
2018-03-26T02:01:10.819Z,0.00
2018-03-26T02:02:10.813Z,0.00
2018-03-26T02:03:10.809Z,0.00
2018-03-26T02:04:10.801Z,0.00
2018-03-26T02:05:10.795Z,0.00
2018-03-26T02:06:10.788Z,0.00
2018-03-26T02:07:10.782Z,0.00
2018-03-26T02:08:10.787Z,0.00
2018-03-26T02:09:10.769Z,0.00
2018-03-26T02:10:10.764Z,0.00
2018-03-26T02:11:10.757Z,0.00
2018-03-26T02:12:10.751Z,0.00
2018-03-26T02:13:10.745Z,0.00
2018-03-26T02:14:10.739Z,0.00
2018-03-26T02:15:10.731Z,0.00
2018-03-26T02:16:10.840Z,0.00
2018-03-26T02:17:10.720Z,0.00
2018-03-26T02:18:10.714Z,0.00
2018-03-26T02:19:10.857Z,0.00
2018-03-26T02:20:10.701Z,0.00
2018-03-26T02:21:10.695Z,0.00
2018-03-26T02:22:10.690Z,0.00
2018-03-26T02:23:10.681Z,0.00
2018-03-26T02:24:10.751Z,0.00
2018-03-26T02:25:10.670Z,0.00
2018-03-26T02:26:10.664Z,0.00
2018-03-26T02:27:10.657Z,0.00
2018-03-26T02:28:10.651Z,0.00
2018-03-26T02:29:10.645Z,0.00
2018-03-26T02:30:10.646Z,0.00
2018-03-26T02:31:10.635Z,0.00
2018-03-26T02:32:10.840Z,0.00
2018-03-26T02:33:10.620Z,0.00
2018-03-26T02:34:10.613Z,0.00
2018-03-26T02:35:10.607Z,0.00
2018-03-26T02:36:10.606Z,0.00
2018-03-26T02:37:10.595Z,0.00
2018-03-26T02:38:10.589Z,0.00
2018-03-26T02:39:10.580Z,0.00
2018-03-26T02:40:10.593Z,0.00
2018-03-26T02:41:10.573Z,0.00
2018-03-26T02:42:10.562Z,0.00
2018-03-26T02:43:10.564Z,0.00
2018-03-26T02:44:10.549Z,0.00
2018-03-26T02:45:10.544Z,0.00
2018-03-26T02:46:10.537Z,0.00
2018-03-26T02:47:10.531Z,0.00
2018-03-26T02:48:10.793Z,0.00
2018-03-26T02:49:10.518Z,0.00
2018-03-26T02:50:10.512Z,0.00
2018-03-26T02:51:10.505Z,0.00
2018-03-26T02:52:10.502Z,0.00
2018-03-26T02:53:10.491Z,0.00
2018-03-26T02:54:10.485Z,0.00
2018-03-26T02:55:10.479Z,0.00
2018-03-26T02:56:10.490Z,0.00
2018-03-26T02:57:10.466Z,0.00
2018-03-26T02:58:10.460Z,0.00
2018-03-26T02:59:10.455Z,0.00
2018-03-26T03:00:10.449Z,0.00
2018-03-26T03:01:10.440Z,0.00
2018-03-26T03:02:10.435Z,0.00
2018-03-26T03:03:10.427Z,0.00
2018-03-26T03:04:10.800Z,0.00
2018-03-26T03:05:10.416Z,0.00
2018-03-26T03:06:10.407Z,0.00
2018-03-26T03:07:10.401Z,0.00
2018-03-26T03:08:10.395Z,0.00
2018-03-26T03:09:10.388Z,0.00
2018-03-26T03:10:10.381Z,0.00
2018-03-26T03:11:10.373Z,0.00
2018-03-26T03:12:10.394Z,0.00
2018-03-26T03:13:10.361Z,0.00
2018-03-26T03:14:10.355Z,0.00
2018-03-26T03:15:10.353Z,0.00
2018-03-26T03:16:10.341Z,0.00
2018-03-26T03:17:10.335Z,0.00
2018-03-26T03:18:10.329Z,0.00
2018-03-26T03:19:10.321Z,0.00
2018-03-26T03:20:10.550Z,0.00
2018-03-26T03:21:10.308Z,0.00
2018-03-26T03:22:10.302Z,0.00
2018-03-26T03:23:10.295Z,0.00
2018-03-26T03:24:10.288Z,0.00
2018-03-26T03:25:10.283Z,0.00
2018-03-26T03:26:10.277Z,0.00
2018-03-26T03:27:10.274Z,0.00
2018-03-26T03:28:10.282Z,0.00
2018-03-26T03:29:10.257Z,0.00
2018-03-26T03:30:10.251Z,0.00
2018-03-26T03:31:10.250Z,0.00
2018-03-26T03:32:10.295Z,0.00
2018-03-26T03:33:10.230Z,0.00
2018-03-26T03:34:10.225Z,0.00
2018-03-26T03:35:10.216Z,0.00
2018-03-26T03:36:10.473Z,0.00
2018-03-26T03:37:10.204Z,0.00
2018-03-26T03:38:10.197Z,0.00
2018-03-26T03:39:10.191Z,0.00
2018-03-26T03:40:10.184Z,0.00
2018-03-26T03:41:10.177Z,0.00
2018-03-26T03:42:10.171Z,0.00
2018-03-26T03:43:10.164Z,0.00
2018-03-26T03:44:10.181Z,0.00
2018-03-26T03:45:10.151Z,0.00
2018-03-26T03:46:10.151Z,0.00
2018-03-26T03:47:10.153Z,0.00
2018-03-26T03:48:10.130Z,0.00
2018-03-26T03:49:12.526Z,0.00
2018-03-26T03:50:10.117Z,0.00
2018-03-26T03:51:10.110Z,0.00
2018-03-26T03:52:10.473Z,0.00
2018-03-26T03:53:10.097Z,0.00
2018-03-26T03:54:10.097Z,0.00
2018-03-26T03:55:10.097Z,0.00
2018-03-26T03:56:10.077Z,0.00
2018-03-26T03:57:10.069Z,0.00
2018-03-26T03:58:10.063Z,0.00
2018-03-26T03:59:10.055Z,0.00
2018-03-26T04:00:10.094Z,0.00
2018-03-26T04:01:10.042Z,0.00
2018-03-26T04:02:10.036Z,0.00
2018-03-26T04:03:10.038Z,0.00
2018-03-26T04:04:10.021Z,0.00
2018-03-26T04:05:10.015Z,0.00
2018-03-26T04:06:10.009Z,0.00
2018-03-26T04:07:10.000Z,0.00
2018-03-26T04:08:10.465Z,0.00
2018-03-26T04:09:09.989Z,0.00
2018-03-26T04:10:09.982Z,0.00
2018-03-26T04:11:09.974Z,0.00
2018-03-26T04:12:09.968Z,0.00
2018-03-26T04:13:09.961Z,0.00
2018-03-26T04:14:09.954Z,0.00
2018-03-26T04:15:09.946Z,0.00
2018-03-26T04:16:09.953Z,0.00
2018-03-26T04:17:09.932Z,0.00
2018-03-26T04:18:09.926Z,0.00
2018-03-26T04:19:09.918Z,0.00
2018-03-26T04:20:09.922Z,0.00
2018-03-26T04:21:09.905Z,0.00
2018-03-26T04:22:09.898Z,0.00
2018-03-26T04:23:09.890Z,0.00
2018-03-26T04:24:10.124Z,0.00
2018-03-26T04:25:09.877Z,0.00
2018-03-26T04:26:09.873Z,0.00
2018-03-26T04:27:09.863Z,0.00
2018-03-26T04:28:09.858Z,0.00
2018-03-26T04:29:09.855Z,0.00
2018-03-26T04:30:09.851Z,0.00
2018-03-26T04:31:09.839Z,0.00
2018-03-26T04:32:10.122Z,0.00
2018-03-26T04:33:09.825Z,0.00
2018-03-26T04:34:09.818Z,0.00
2018-03-26T04:35:09.809Z,0.00
2018-03-26T04:36:09.803Z,0.00
2018-03-26T04:37:09.797Z,0.00
2018-03-26T04:38:09.791Z,0.00
2018-03-26T04:39:09.781Z,0.00
2018-03-26T04:40:09.786Z,0.00
2018-03-26T04:41:09.769Z,0.00
2018-03-26T04:42:09.763Z,0.00
2018-03-26T04:43:09.755Z,0.00
2018-03-26T04:44:09.747Z,0.00
2018-03-26T04:45:09.742Z,0.00
2018-03-26T04:46:09.735Z,0.00
2018-03-26T04:47:09.728Z,0.00
2018-03-26T04:48:09.721Z,0.00
2018-03-26T04:49:09.715Z,0.00
2018-03-26T04:50:09.709Z,0.00
2018-03-26T04:51:09.700Z,0.00
2018-03-26T04:52:09.693Z,0.00
2018-03-26T04:53:09.687Z,0.00
2018-03-26T04:54:09.685Z,0.00
2018-03-26T04:55:09.923Z,0.00
2018-03-26T04:56:09.666Z,0.00
2018-03-26T04:57:09.659Z,0.00
2018-03-26T04:58:09.653Z,0.00
2018-03-26T04:59:09.645Z,0.00
2018-03-26T05:00:09.642Z,0.00
2018-03-26T05:01:09.632Z,0.00
2018-03-26T05:02:09.629Z,0.00
2018-03-26T05:03:09.617Z,0.00
2018-03-26T05:04:09.612Z,0.00
2018-03-26T05:05:09.605Z,0.00
2018-03-26T05:06:09.598Z,0.00
2018-03-26T05:07:09.590Z,0.00
2018-03-26T05:08:09.588Z,0.00
2018-03-26T05:09:09.578Z,0.00
2018-03-26T05:10:09.571Z,0.00
2018-03-26T05:11:09.564Z,0.00
2018-03-26T05:12:09.567Z,0.00
2018-03-26T05:13:09.555Z,0.00
2018-03-26T05:14:09.550Z,0.00
2018-03-26T05:15:09.536Z,0.00
2018-03-26T05:16:09.535Z,0.00
2018-03-26T05:17:09.523Z,0.00
2018-03-26T05:18:09.517Z,0.00
2018-03-26T05:19:09.617Z,0.00
2018-03-26T05:20:09.503Z,0.00
2018-03-26T05:21:09.496Z,0.00
2018-03-26T05:22:09.490Z,0.00
2018-03-26T05:23:09.482Z,0.00
2018-03-26T05:24:09.476Z,0.00
2018-03-26T05:25:09.468Z,5.63
2018-03-26T05:26:09.462Z,5.63
2018-03-26T05:27:09.454Z,5.63
2018-03-26T05:28:09.448Z,5.63
2018-03-26T05:29:09.458Z,5.63
2018-03-26T05:30:09.437Z,5.63
2018-03-26T05:31:09.437Z,5.63
2018-03-26T05:32:09.423Z,11.25
2018-03-26T05:33:09.414Z,11.25
2018-03-26T05:34:09.410Z,11.25
2018-03-26T05:35:09.400Z,11.25
2018-03-26T05:36:09.392Z,11.25
2018-03-26T05:37:09.435Z,11.25
2018-03-26T05:38:09.379Z,11.25
2018-03-26T05:39:09.371Z,16.88
2018-03-26T05:40:09.365Z,16.88
2018-03-26T05:41:09.360Z,16.88
2018-03-26T05:42:09.353Z,22.50
2018-03-26T05:43:51.753Z,22.50
2018-03-26T06:04:48.327Z,45.00
2018-03-26T06:13:44.909Z,56.25
2018-03-26T06:15:27.312Z,67.50
2018-03-26T06:16:27.314Z,67.50
2018-03-26T06:21:36.255Z,78.75
2018-03-26T06:23:23.659Z,78.75
2018-03-26T06:24:23.650Z,84.38
2018-03-26T06:28:56.779Z,118.13
2018-03-26T06:31:04.227Z,129.38
2018-03-26T06:36:13.170Z,168.75
2018-03-26T06:38:45.663Z,168.75
2018-03-26T06:39:45.656Z,185.63
2018-03-26T06:40:45.649Z,202.50
2018-03-26T06:42:45.635Z,208.13
2018-03-26T06:49:27.080Z,213.75
2018-03-26T06:51:09.482Z,191.25
2018-03-26T06:53:02.105Z,230.63
2018-03-26T07:01:31.628Z,253.13
2018-03-26T07:03:19.040Z,309.38
2018-03-26T07:05:41.514Z,264.38
2018-03-26T07:06:41.554Z,270.00
2018-03-26T07:07:41.498Z,410.63
2018-03-26T07:09:43.940Z,652.50
2018-03-26T07:10:43.934Z,348.75
2018-03-26T07:11:43.927Z,315.00
2018-03-26T07:12:43.922Z,450.00
2018-03-26T07:13:43.914Z,444.38
2018-03-26T07:14:43.907Z,354.38
2018-03-26T07:15:43.900Z,388.13
2018-03-26T07:16:43.895Z,562.50
2018-03-26T07:17:43.888Z,410.63
2018-03-26T07:18:43.882Z,388.13
2018-03-26T07:19:43.876Z,1237.50
2018-03-26T07:20:43.870Z,1732.50
2018-03-26T07:21:43.895Z,1051.88
2018-03-26T07:22:43.857Z,2846.25
2018-03-26T07:23:43.877Z,2300.63
2018-03-26T07:24:43.849Z,2047.50
2018-03-26T07:25:43.837Z,2806.88
2018-03-26T07:26:43.836Z,2947.50
2018-03-26T07:27:43.832Z,2683.13
2018-03-26T07:28:43.822Z,444.38
2018-03-26T07:29:43.822Z,1749.38
2018-03-26T07:30:43.819Z,978.75
2018-03-26T07:31:43.808Z,1608.75
2018-03-26T07:32:43.804Z,3020.63
2018-03-26T07:33:43.798Z,3498.75
2018-03-26T07:34:43.796Z,3116.25
2018-03-26T07:35:43.791Z,2373.75
2018-03-26T07:36:43.788Z,1631.25
2018-03-26T07:37:43.783Z,1248.75
2018-03-26T07:38:43.780Z,1040.63
2018-03-26T07:39:46.400Z,663.75
2018-03-26T07:43:54.547Z,1980.00
2018-03-26T07:44:54.558Z,1591.88
2018-03-26T07:45:54.541Z,466.88
2018-03-26T07:49:20.242Z,1822.50
2018-03-26T07:51:02.638Z,3425.63
2018-03-26T07:52:45.048Z,4719.38
2018-03-26T07:53:45.052Z,4730.63
2018-03-26T07:54:48.270Z,4078.13
2018-03-26T07:55:45.039Z,2638.13
2018-03-26T07:56:45.038Z,2514.38
2018-03-26T07:59:54.948Z,1580.63
2018-03-26T08:00:54.952Z,2340.00
2018-03-26T08:03:07.947Z,2553.75
2018-03-26T08:04:07.946Z,860.63
2018-03-26T08:05:07.944Z,950.63
2018-03-26T08:08:33.637Z,2340.00
2018-03-26T08:14:02.643Z,821.25
2018-03-26T08:15:02.645Z,421.88
2018-03-26T08:16:02.639Z,511.88
2018-03-26T08:17:02.743Z,483.75
2018-03-26T08:18:02.638Z,365.63
2018-03-26T08:19:02.632Z,376.88
2018-03-26T08:20:02.632Z,371.25
2018-03-26T08:21:02.631Z,388.13
2018-03-26T08:22:02.625Z,405.00
2018-03-26T08:23:02.624Z,348.75
2018-03-26T08:24:02.616Z,348.75
2018-03-26T08:25:02.613Z,348.75
2018-03-26T08:26:02.607Z,405.00
2018-03-26T08:27:02.605Z,613.13
2018-03-26T08:28:02.619Z,601.88
2018-03-26T08:29:02.597Z,348.75
2018-03-26T08:30:02.594Z,331.88
2018-03-26T08:31:02.603Z,343.13
2018-03-26T08:32:02.586Z,348.75
2018-03-26T08:33:02.582Z,388.13
2018-03-26T08:34:02.576Z,337.50
2018-03-26T08:35:02.573Z,326.25
2018-03-26T08:36:02.569Z,326.25
2018-03-26T08:37:02.564Z,326.25
2018-03-26T08:38:02.659Z,331.88
2018-03-26T08:39:02.558Z,331.88
2018-03-26T08:40:02.550Z,343.13
2018-03-26T08:41:02.545Z,337.50
2018-03-26T08:42:02.541Z,337.50
2018-03-26T08:43:02.536Z,337.50
2018-03-26T08:44:02.534Z,331.88
2018-03-26T08:45:02.528Z,343.13
2018-03-26T08:46:02.521Z,343.13
2018-03-26T08:47:02.521Z,337.50
2018-03-26T08:48:02.513Z,337.50
2018-03-26T08:49:02.516Z,343.13
2018-03-26T08:50:02.619Z,343.13
2018-03-26T08:51:02.495Z,343.13
2018-03-26T08:52:02.490Z,337.50
2018-03-26T08:53:02.487Z,320.63
2018-03-26T08:54:02.480Z,309.38
2018-03-26T08:55:02.480Z,315.00
2018-03-26T08:56:02.484Z,309.38
2018-03-26T08:57:02.464Z,354.38
2018-03-26T08:58:02.457Z,337.50
2018-03-26T08:59:02.453Z,337.50
2018-03-26T09:00:02.457Z,528.75
2018-03-26T09:01:02.449Z,495.00
2018-03-26T09:02:02.436Z,365.63
2018-03-26T09:03:02.430Z,315.00
2018-03-26T09:04:02.430Z,298.13
2018-03-26T09:05:02.437Z,292.50
2018-03-26T09:06:02.413Z,298.13
2018-03-26T09:07:02.408Z,320.63
2018-03-26T09:08:02.404Z,337.50
2018-03-26T09:09:02.396Z,309.38
2018-03-26T09:10:02.392Z,286.88
2018-03-26T09:11:02.386Z,286.88
2018-03-26T09:12:02.394Z,286.88
2018-03-26T09:13:02.376Z,286.88
2018-03-26T09:14:02.475Z,286.88
2018-03-26T09:15:02.364Z,286.88
2018-03-26T09:16:02.359Z,292.50
2018-03-26T09:17:02.354Z,376.88
2018-03-26T09:18:02.349Z,427.50
2018-03-26T09:19:02.341Z,298.13
2018-03-26T09:20:02.587Z,286.88
2018-03-26T09:21:02.333Z,292.50
2018-03-26T09:22:02.326Z,286.88
2018-03-26T09:23:02.319Z,315.00
2018-03-26T09:24:02.320Z,540.00
2018-03-26T09:25:02.308Z,635.63
2018-03-26T09:26:02.335Z,376.88
2018-03-26T09:27:02.298Z,309.38
2018-03-26T09:28:02.292Z,286.88
2018-03-26T09:29:02.287Z,303.75
2018-03-26T09:30:02.299Z,337.50
2018-03-26T09:31:02.278Z,337.50
2018-03-26T09:32:02.272Z,292.50
2018-03-26T09:33:02.265Z,281.25
2018-03-26T09:34:02.259Z,281.25
2018-03-26T09:35:02.254Z,281.25
2018-03-26T09:36:02.249Z,281.25
2018-03-26T09:37:02.244Z,303.75
2018-03-26T09:38:02.237Z,303.75
2018-03-26T09:39:02.232Z,292.50
2018-03-26T09:40:02.227Z,286.88
2018-03-26T09:41:02.222Z,292.50
2018-03-26T09:42:02.216Z,292.50
2018-03-26T09:43:02.210Z,309.38
2018-03-26T09:44:02.204Z,303.75
2018-03-26T09:45:02.206Z,292.50
2018-03-26T09:46:02.195Z,292.50
2018-03-26T09:47:02.213Z,292.50
2018-03-26T09:48:02.185Z,298.13
2018-03-26T09:49:02.190Z,315.00
2018-03-26T09:50:02.524Z,298.13
2018-03-26T09:51:02.167Z,292.50
2018-03-26T09:52:02.166Z,286.88
2018-03-26T09:53:02.157Z,286.88
2018-03-26T09:54:02.155Z,286.88
2018-03-26T09:55:02.147Z,286.88
2018-03-26T09:56:02.481Z,292.50
2018-03-26T09:57:02.136Z,292.50
2018-03-26T09:58:02.137Z,286.88
2018-03-26T09:59:02.128Z,281.25
2018-03-26T10:00:02.121Z,281.25
2018-03-26T10:01:02.128Z,286.88
2018-03-26T10:02:02.192Z,286.88
2018-03-26T10:03:02.104Z,286.88
2018-03-26T10:04:02.099Z,292.50
2018-03-26T10:05:02.096Z,292.50
2018-03-26T10:06:02.090Z,292.50
2018-03-26T10:07:02.085Z,298.13
2018-03-26T10:08:02.079Z,298.13
2018-03-26T10:09:02.076Z,292.50
2018-03-26T10:10:02.069Z,298.13
2018-03-26T10:11:02.064Z,292.50
2018-03-26T10:12:02.059Z,298.13
2018-03-26T10:13:02.054Z,303.75
2018-03-26T10:14:02.049Z,303.75
2018-03-26T10:15:02.044Z,303.75
2018-03-26T10:16:02.040Z,309.38
2018-03-26T10:17:02.035Z,303.75
2018-03-26T10:18:02.029Z,309.38
2018-03-26T10:19:02.025Z,309.38
2018-03-26T10:20:02.020Z,315.00
2018-03-26T10:21:02.015Z,315.00
2018-03-26T10:22:02.012Z,320.63
2018-03-26T10:23:02.007Z,326.25
2018-03-26T10:24:02.004Z,326.25
2018-03-26T10:25:01.995Z,331.88
2018-03-26T10:26:01.991Z,326.25
2018-03-26T10:27:01.988Z,331.88
2018-03-26T10:28:01.981Z,331.88
2018-03-26T10:29:01.977Z,331.88
2018-03-26T10:30:01.985Z,331.88
2018-03-26T10:31:01.969Z,320.63
2018-03-26T10:32:02.212Z,292.50
2018-03-26T10:33:01.964Z,298.13
2018-03-26T10:34:01.952Z,315.00
2018-03-26T10:35:01.948Z,315.00
2018-03-26T10:36:01.944Z,309.38
2018-03-26T10:37:01.940Z,320.63
2018-03-26T10:38:02.234Z,326.25
2018-03-26T10:39:01.929Z,315.00
2018-03-26T10:40:01.925Z,331.88
2018-03-26T10:41:01.926Z,348.75
2018-03-26T10:42:01.919Z,354.38
2018-03-26T10:43:01.912Z,343.13
2018-03-26T10:44:02.157Z,337.50
2018-03-26T10:45:01.904Z,331.88
2018-03-26T10:46:01.902Z,331.88
2018-03-26T10:47:01.893Z,343.13
2018-03-26T10:48:01.889Z,343.13
2018-03-26T10:49:01.886Z,343.13
2018-03-26T10:50:02.181Z,348.75
2018-03-26T10:51:01.891Z,354.38
2018-03-26T10:52:01.882Z,360.00
2018-03-26T10:53:01.869Z,371.25
2018-03-26T10:54:01.863Z,376.88
2018-03-26T10:55:01.859Z,371.25
2018-03-26T10:56:01.855Z,365.63
2018-03-26T10:57:01.852Z,360.00
2018-03-26T10:58:01.845Z,360.00
2018-03-26T10:59:01.842Z,365.63
2018-03-26T11:00:01.838Z,371.25
2018-03-26T11:01:01.834Z,360.00
2018-03-26T11:02:01.979Z,376.88
2018-03-26T11:03:01.825Z,382.50
2018-03-26T11:04:01.825Z,399.38
2018-03-26T11:05:01.817Z,405.00
2018-03-26T11:06:01.812Z,399.38
2018-03-26T11:07:01.807Z,388.13
2018-03-26T11:08:01.804Z,393.75
2018-03-26T11:09:01.805Z,393.75
2018-03-26T11:10:01.795Z,388.13
2018-03-26T11:11:01.799Z,393.75
2018-03-26T11:12:01.789Z,393.75
2018-03-26T11:13:01.801Z,410.63
2018-03-26T11:14:01.778Z,405.00
2018-03-26T11:15:01.779Z,421.88
2018-03-26T11:16:01.774Z,455.63
2018-03-26T11:17:01.768Z,455.63
2018-03-26T11:18:01.798Z,410.63
2018-03-26T11:19:01.759Z,399.38
2018-03-26T11:20:01.756Z,416.25
2018-03-26T11:21:01.757Z,472.50
2018-03-26T11:22:01.747Z,438.75
2018-03-26T11:23:01.745Z,427.50
2018-03-26T11:24:01.741Z,438.75
2018-03-26T11:25:01.737Z,444.38
2018-03-26T11:26:01.733Z,433.13
2018-03-26T11:27:01.730Z,416.25
2018-03-26T11:28:01.741Z,444.38
2018-03-26T11:29:01.722Z,472.50
2018-03-26T11:30:01.719Z,444.38
2018-03-26T11:31:01.716Z,433.13
2018-03-26T11:32:01.713Z,433.13
2018-03-26T11:33:01.709Z,433.13
2018-03-26T11:34:01.706Z,438.75
2018-03-26T11:35:01.702Z,438.75
2018-03-26T11:36:01.699Z,433.13
2018-03-26T11:37:01.697Z,421.88
2018-03-26T11:38:01.792Z,427.50
2018-03-26T11:39:01.690Z,421.88
2018-03-26T11:40:01.692Z,438.75
2018-03-26T11:41:01.683Z,444.38
2018-03-26T11:42:01.680Z,444.38
2018-03-26T11:43:01.691Z,455.63
2018-03-26T11:44:01.675Z,483.75
2018-03-26T11:45:01.672Z,483.75
2018-03-26T11:46:01.670Z,483.75
2018-03-26T11:47:01.666Z,382.50
2018-03-26T11:48:01.666Z,489.38
2018-03-26T11:49:01.668Z,495.00
2018-03-26T11:50:01.668Z,472.50
2018-03-26T11:51:01.669Z,495.00
2018-03-26T11:52:01.657Z,399.38
2018-03-26T11:53:01.649Z,421.88
2018-03-26T11:54:01.645Z,365.63
2018-03-26T11:55:01.643Z,416.25
2018-03-26T11:56:01.890Z,427.50
2018-03-26T11:57:01.637Z,466.88
2018-03-26T11:58:01.634Z,483.75
2018-03-26T11:59:01.632Z,511.88
2018-03-26T12:00:01.630Z,500.63
2018-03-26T12:01:01.627Z,506.25
2018-03-26T12:02:01.923Z,517.50
2018-03-26T12:03:01.623Z,495.00
2018-03-26T12:04:01.621Z,506.25
2018-03-26T12:05:01.622Z,517.50
2018-03-26T12:06:01.623Z,630.00
2018-03-26T12:07:01.624Z,596.25
2018-03-26T12:08:01.858Z,658.13
2018-03-26T12:09:01.606Z,528.75
2018-03-26T12:10:01.603Z,483.75
2018-03-26T12:11:01.601Z,545.63
2018-03-26T12:12:01.600Z,540.00
2018-03-26T12:13:01.609Z,495.00
2018-03-26T12:14:01.901Z,410.63
2018-03-26T12:15:01.593Z,1254.38
2018-03-26T12:16:01.590Z,1884.38
2018-03-26T12:17:01.588Z,1479.38
2018-03-26T12:18:01.586Z,1074.38
2018-03-26T12:19:01.588Z,736.88
2018-03-26T12:20:01.583Z,646.88
2018-03-26T12:21:01.615Z,613.13
2018-03-26T12:22:01.578Z,635.63
2018-03-26T12:23:01.576Z,652.50
2018-03-26T12:24:02.790Z,691.88
2018-03-26T12:25:01.573Z,753.75
2018-03-26T12:26:01.572Z,776.25
2018-03-26T12:27:01.574Z,821.25
2018-03-26T12:28:01.571Z,793.13
2018-03-26T12:29:01.568Z,714.38
2018-03-26T12:30:01.568Z,770.63
2018-03-26T12:31:01.570Z,877.50
2018-03-26T12:32:01.567Z,950.63
2018-03-26T12:33:02.190Z,613.13
2018-03-26T12:34:02.989Z,551.25
2018-03-26T12:35:01.568Z,888.75
2018-03-26T12:36:01.570Z,826.88
2018-03-26T12:37:01.571Z,894.38
2018-03-26T12:38:01.592Z,826.88
2018-03-26T12:39:01.573Z,748.13
2018-03-26T12:40:01.576Z,770.63
2018-03-26T12:41:01.579Z,742.50
2018-03-26T12:42:01.580Z,742.50
2018-03-26T12:43:01.585Z,787.50
2018-03-26T12:44:01.586Z,810.00
2018-03-26T12:45:01.589Z,855.00
2018-03-26T12:46:01.591Z,877.50
2018-03-26T12:47:01.595Z,871.88
2018-03-26T12:48:01.606Z,883.13
2018-03-26T12:49:01.602Z,900.00
2018-03-26T12:50:01.608Z,810.00
2018-03-26T12:51:01.718Z,804.38
2018-03-26T12:52:01.615Z,843.75
2018-03-26T12:53:01.622Z,883.13
2018-03-26T12:54:01.625Z,860.63
2018-03-26T12:55:01.629Z,883.13
2018-03-26T12:56:01.636Z,933.75
2018-03-26T12:57:01.641Z,1012.50
2018-03-26T12:58:01.645Z,1068.75
2018-03-26T12:59:01.651Z,1108.13
2018-03-26T13:00:01.684Z,1136.25
2018-03-26T13:01:01.664Z,1198.13
2018-03-26T13:02:01.683Z,466.88
2018-03-26T13:03:01.683Z,517.50
2018-03-26T13:04:01.690Z,1130.63
2018-03-26T13:05:01.690Z,1344.38
2018-03-26T13:06:01.692Z,1524.38
2018-03-26T13:07:03.162Z,1541.25
2018-03-26T13:08:01.704Z,1906.88
2018-03-26T13:09:01.711Z,2407.50
2018-03-26T13:10:01.716Z,2728.13
2018-03-26T13:11:01.733Z,2851.88
2018-03-26T13:12:01.729Z,2626.88
2018-03-26T13:13:02.086Z,2272.50
2018-03-26T13:14:01.761Z,1951.88
2018-03-26T13:15:01.761Z,1693.13
2018-03-26T13:16:01.760Z,1462.50
2018-03-26T13:17:01.762Z,1293.75
2018-03-26T13:18:01.773Z,1591.88
2018-03-26T13:19:02.024Z,1608.75
2018-03-26T13:20:01.781Z,1406.25
2018-03-26T13:21:01.788Z,1153.13
2018-03-26T13:22:01.797Z,1063.13
2018-03-26T13:23:01.804Z,916.88
2018-03-26T13:24:01.811Z,900.00
2018-03-26T13:25:01.818Z,725.63
2018-03-26T13:26:01.822Z,860.63
2018-03-26T13:27:01.833Z,804.38
2018-03-26T13:28:01.839Z,776.25
2018-03-26T13:29:01.902Z,753.75
2018-03-26T13:30:01.851Z,708.75
2018-03-26T13:31:01.859Z,731.25
2018-03-26T13:32:01.877Z,731.25
2018-03-26T13:33:01.876Z,596.25
2018-03-26T13:34:01.878Z,635.63
2018-03-26T13:35:01.887Z,686.25
2018-03-26T13:36:01.897Z,708.75
2018-03-26T13:37:01.900Z,708.75
2018-03-26T13:38:01.907Z,708.75
2018-03-26T13:39:01.914Z,635.63
2018-03-26T13:40:01.921Z,658.13
2018-03-26T13:41:01.928Z,596.25
2018-03-26T13:42:01.939Z,579.38
2018-03-26T13:43:01.943Z,607.50
2018-03-26T13:44:01.952Z,579.38
2018-03-26T13:45:01.958Z,517.50
2018-03-26T13:46:01.980Z,601.88
2018-03-26T13:47:01.973Z,607.50
2018-03-26T13:48:01.983Z,528.75
2018-03-26T13:49:01.990Z,601.88
2018-03-26T13:50:02.010Z,444.38
2018-03-26T13:51:02.003Z,393.75
2018-03-26T13:52:02.011Z,382.50
2018-03-26T13:53:02.018Z,416.25
2018-03-26T13:54:02.028Z,556.88
2018-03-26T13:55:02.034Z,585.00
2018-03-26T13:56:02.040Z,590.63
2018-03-26T13:57:02.047Z,562.50
2018-03-26T13:58:02.057Z,551.25
2018-03-26T13:59:02.060Z,540.00
2018-03-26T14:00:02.067Z,534.38
2018-03-26T14:01:02.074Z,500.63
2018-03-26T14:02:02.085Z,466.88
2018-03-26T14:03:02.086Z,483.75
2018-03-26T14:04:02.093Z,461.25
2018-03-26T14:05:02.102Z,461.25
2018-03-26T14:06:02.104Z,472.50
2018-03-26T14:07:02.112Z,416.25
2018-03-26T14:08:02.119Z,455.63
2018-03-26T14:09:02.125Z,450.00